createdAt,value
2019-04-29T00:00:57.173Z,3.25
2019-04-29T00:03:25.160Z,3.15
2019-04-29T00:05:53.433Z,2.95
2019-04-29T00:08:21.898Z,2.78
2019-04-29T00:10:49.790Z,2.67
2019-04-29T00:13:18.181Z,2.63
2019-04-29T00:15:55.575Z,2.61
2019-04-29T00:18:42.971Z,2.76
2019-04-29T00:21:11.574Z,2.98
2019-04-29T00:23:40.176Z,3.00
2019-04-29T00:26:08.340Z,3.02
2019-04-29T00:28:36.554Z,2.94
2019-04-29T00:31:05.064Z,2.90
2019-04-29T00:33:32.970Z,2.88
2019-04-29T00:36:00.871Z,2.88
2019-04-29T00:38:47.109Z,2.81
2019-04-29T00:41:34.586Z,2.72
2019-04-29T00:44:07.851Z,2.64
2019-04-29T00:46:36.657Z,2.59
2019-04-29T00:49:05.155Z,2.53
2019-04-29T00:51:33.033Z,2.47
2019-04-29T00:54:06.281Z,2.44
2019-04-29T00:56:34.554Z,2.43
2019-04-29T00:59:02.464Z,2.42
2019-04-29T01:01:30.764Z,2.47
2019-04-29T01:03:59.073Z,2.53
2019-04-29T01:06:27.409Z,2.56
2019-04-29T01:08:55.603Z,2.57
2019-04-29T01:11:24.074Z,2.55
2019-04-29T01:13:52.685Z,2.53
2019-04-29T01:16:21.207Z,2.51
2019-04-29T01:18:49.425Z,2.46
2019-04-29T01:21:17.739Z,2.51
2019-04-29T01:23:46.010Z,2.52
2019-04-29T01:26:39.458Z,2.45
2019-04-29T01:29:07.958Z,2.34
2019-04-29T01:31:36.174Z,2.24
2019-04-29T01:34:28.573Z,2.30
2019-04-29T01:36:56.455Z,2.24
2019-04-29T01:39:31.788Z,2.24
2019-04-29T01:42:12.225Z,2.16
2019-04-29T01:44:40.659Z,2.10
2019-04-29T01:47:09.107Z,2.04
2019-04-29T01:49:37.426Z,1.99
2019-04-29T01:52:05.633Z,1.96
2019-04-29T01:54:33.945Z,1.92
2019-04-29T01:57:02.546Z,1.87
2019-04-29T01:59:30.621Z,1.82
2019-04-29T02:01:58.581Z,1.80
2019-04-29T02:04:26.488Z,1.75
2019-04-29T02:06:55.060Z,1.73
2019-04-29T02:09:28.915Z,1.72
2019-04-29T02:11:57.569Z,1.69
2019-04-29T02:14:25.833Z,1.70
2019-04-29T02:16:54.233Z,1.67
2019-04-29T02:19:22.806Z,1.69
2019-04-29T02:22:08.809Z,1.70
2019-04-29T02:24:38.514Z,1.65
2019-04-29T02:27:07.206Z,1.62
2019-04-29T02:29:35.366Z,1.55
2019-04-29T02:32:03.965Z,1.51
2019-04-29T02:34:32.806Z,1.50
2019-04-29T02:37:03.291Z,1.48
2019-04-29T02:39:37.386Z,1.44
2019-04-29T02:42:23.816Z,1.44
2019-04-29T02:44:52.715Z,1.44
2019-04-29T02:47:20.901Z,1.37
2019-04-29T02:49:49.277Z,1.34
2019-04-29T02:52:16.795Z,1.32
2019-04-29T02:54:45.737Z,1.28
2019-04-29T02:57:33.211Z,1.24
2019-04-29T03:00:10.765Z,1.21
2019-04-29T03:02:47.634Z,1.17
2019-04-29T03:05:18.451Z,1.18
2019-04-29T03:07:46.705Z,1.15
2019-04-29T03:10:15.238Z,1.15
2019-04-29T03:12:43.516Z,1.17
2019-04-29T03:15:12.325Z,1.27
2019-04-29T03:17:40.855Z,1.37
2019-04-29T03:20:15.268Z,1.44
2019-04-29T03:22:44.252Z,1.51
2019-04-29T03:25:12.446Z,1.53
2019-04-29T03:27:40.389Z,1.62
2019-04-29T03:30:08.927Z,1.71
2019-04-29T03:32:37.561Z,1.76
2019-04-29T03:35:06.478Z,1.85
2019-04-29T03:37:34.758Z,1.93
2019-04-29T03:40:02.651Z,1.93
2019-04-29T03:42:30.883Z,2.00
2019-04-29T03:44:59.066Z,2.04
2019-04-29T03:47:27.339Z,2.16
2019-04-29T03:49:55.976Z,2.24
2019-04-29T03:52:23.938Z,2.32
2019-04-29T03:54:52.564Z,2.32
2019-04-29T03:57:21.291Z,2.37
2019-04-29T03:59:49.487Z,2.43
2019-04-29T04:02:27.669Z,2.48
2019-04-29T04:05:20.430Z,2.55
2019-04-29T04:07:55.977Z,2.73
2019-04-29T04:10:23.936Z,2.82
2019-04-29T04:12:52.238Z,2.90
2019-04-29T04:15:20.538Z,2.98
2019-04-29T04:18:08.547Z,3.00
2019-04-29T04:20:37.326Z,3.04
2019-04-29T04:23:06.016Z,3.14
2019-04-29T04:25:34.396Z,3.21
2019-04-29T04:28:03.040Z,3.20
2019-04-29T04:30:31.265Z,3.22
2019-04-29T04:32:59.854Z,3.26
2019-04-29T04:35:28.147Z,3.30
2019-04-29T04:37:56.740Z,3.29
2019-04-29T04:40:30.682Z,3.27
2019-04-29T04:42:59.026Z,3.24
2019-04-29T04:45:27.211Z,3.32
2019-04-29T04:47:55.495Z,3.40
2019-04-29T04:50:23.716Z,3.40
2019-04-29T04:52:52.290Z,3.41
2019-04-29T04:55:22.376Z,3.45
2019-04-29T04:57:50.584Z,3.47
2019-04-29T05:00:21.926Z,3.49
2019-04-29T05:02:50.514Z,3.52
2019-04-29T05:05:19.111Z,3.53
2019-04-29T05:07:46.609Z,3.55
2019-04-29T05:10:15.189Z,3.58
2019-04-29T05:12:43.779Z,3.61
2019-04-29T05:15:20.762Z,3.65
2019-04-29T05:17:49.001Z,3.67
2019-04-29T05:20:16.974Z,3.73
2019-04-29T05:22:59.179Z,3.79
2019-04-29T05:25:29.194Z,3.82
2019-04-29T05:27:56.826Z,3.81
2019-04-29T05:30:25.139Z,3.79
2019-04-29T05:32:53.768Z,3.75
2019-04-29T05:35:24.876Z,3.76
2019-04-29T05:38:05.482Z,3.75
2019-04-29T05:40:42.316Z,3.81
2019-04-29T05:43:12.737Z,3.75
2019-04-29T05:45:50.825Z,3.74
2019-04-29T05:48:19.436Z,3.78
2019-04-29T05:50:59.814Z,3.83
2019-04-29T05:53:41.210Z,3.88
2019-04-29T05:56:09.985Z,3.85
2019-04-29T05:58:39.270Z,3.88
2019-04-29T06:01:15.721Z,3.90
2019-04-29T06:03:44.544Z,3.94
2019-04-29T06:06:12.575Z,3.90
2019-04-29T06:08:40.582Z,3.89
2019-04-29T06:11:08.680Z,3.99
2019-04-29T06:13:36.686Z,4.02
2019-04-29T06:16:04.834Z,3.98
2019-04-29T06:18:32.725Z,4.06
2019-04-29T06:21:08.865Z,4.11
2019-04-29T06:23:31.130Z,4.17
2019-04-29T06:25:59.287Z,4.26
2019-04-29T06:28:28.189Z,4.35
2019-04-29T06:30:56.532Z,4.44
2019-04-29T06:33:29.225Z,4.48
2019-04-29T06:35:57.045Z,4.55
2019-04-29T06:38:25.984Z,4.63
2019-04-29T06:40:54.197Z,4.64
2019-04-29T06:43:24.475Z,4.76
2019-04-29T06:45:52.928Z,4.88
2019-04-29T06:48:21.158Z,4.93
2019-04-29T06:50:49.815Z,4.96
2019-04-29T06:53:21.250Z,5.05
2019-04-29T06:55:48.199Z,5.10
2019-04-29T06:58:16.694Z,5.13
2019-04-29T07:00:44.979Z,5.20
2019-04-29T07:03:13.578Z,5.31
2019-04-29T07:05:41.524Z,5.36
2019-04-29T07:08:09.706Z,5.32
2019-04-29T07:10:38.029Z,5.23
2019-04-29T07:13:06.187Z,5.24
2019-04-29T07:15:34.960Z,5.20
2019-04-29T07:18:03.470Z,5.31
2019-04-29T07:20:32.548Z,5.39
2019-04-29T07:23:02.508Z,5.47
2019-04-29T07:25:30.444Z,5.51
2019-04-29T07:27:59.203Z,5.64
2019-04-29T07:30:29.291Z,5.63
2019-04-29T07:32:58.150Z,5.65
2019-04-29T07:35:26.126Z,5.67
2019-04-29T07:37:53.596Z,5.78
2019-04-29T07:40:22.102Z,5.88
2019-04-29T07:42:50.362Z,5.93
2019-04-29T07:45:28.159Z,5.97
2019-04-29T07:47:57.168Z,5.94
2019-04-29T07:50:26.624Z,5.91
2019-04-29T07:52:56.097Z,5.93
2019-04-29T07:55:25.891Z,6.03
2019-04-29T07:57:54.760Z,6.09
2019-04-29T08:00:32.704Z,6.17
2019-04-29T08:03:02.171Z,6.13
2019-04-29T08:05:30.691Z,6.22
2019-04-29T08:07:59.898Z,6.35
2019-04-29T08:10:29.820Z,6.40
2019-04-29T08:12:59.226Z,6.52
2019-04-29T08:15:27.190Z,6.57
2019-04-29T08:18:06.441Z,6.64
2019-04-29T08:20:25.912Z,6.48
2019-04-29T08:22:54.191Z,6.60
2019-04-29T08:25:25.954Z,6.78
2019-04-29T08:27:52.920Z,6.78
2019-04-29T08:30:20.710Z,6.72
2019-04-29T08:32:48.982Z,6.80
2019-04-29T08:35:17.550Z,6.81
2019-04-29T08:37:46.336Z,6.97
2019-04-29T08:40:16.903Z,7.16
2019-04-29T08:42:50.365Z,7.27
2019-04-29T08:45:39.074Z,7.44
2019-04-29T08:48:08.025Z,7.60
2019-04-29T08:50:35.904Z,7.73
2019-04-29T08:53:04.623Z,7.92
2019-04-29T08:55:36.160Z,8.05
2019-04-29T08:58:02.290Z,8.17
2019-04-29T09:00:30.465Z,8.22
2019-04-29T09:02:58.720Z,8.09
2019-04-29T09:05:27.443Z,8.12
2019-04-29T09:07:57.397Z,8.13
2019-04-29T09:10:25.425Z,8.33
2019-04-29T09:12:53.599Z,8.25
2019-04-29T09:15:21.465Z,8.25
2019-04-29T09:17:49.691Z,8.16
2019-04-29T09:20:18.490Z,8.07
2019-04-29T09:22:52.460Z,8.09
2019-04-29T09:25:45.767Z,7.99
2019-04-29T09:28:18.017Z,8.03
2019-04-29T09:30:43.679Z,8.04
2019-04-29T09:33:13.046Z,7.96
2019-04-29T09:35:42.534Z,8.08
2019-04-29T09:38:10.803Z,8.22
2019-04-29T09:40:45.700Z,8.32
2019-04-29T09:43:45.376Z,8.38
2019-04-29T09:46:18.629Z,8.65
2019-04-29T09:48:47.261Z,8.83
2019-04-29T09:51:17.637Z,8.93
2019-04-29T09:53:45.719Z,9.01
2019-04-29T09:56:13.652Z,8.98
2019-04-29T09:58:42.238Z,9.18
2019-04-29T10:01:20.917Z,9.15
2019-04-29T10:04:07.624Z,9.13
2019-04-29T10:06:36.966Z,9.01
2019-04-29T10:09:08.419Z,9.25
2019-04-29T10:11:36.861Z,9.29
2019-04-29T10:14:05.334Z,9.28
2019-04-29T10:17:01.867Z,9.39
2019-04-29T10:19:58.816Z,9.27
2019-04-29T10:22:27.093Z,9.37
2019-04-29T10:24:55.779Z,9.43
2019-04-29T10:27:24.370Z,9.48
2019-04-29T10:29:56.746Z,9.43
2019-04-29T10:32:24.612Z,9.43
2019-04-29T10:34:52.912Z,9.50
2019-04-29T10:37:23.810Z,9.38
2019-04-29T10:40:10.947Z,9.42
2019-04-29T10:42:40.081Z,9.55
2019-04-29T10:45:46.526Z,9.67
2019-04-29T10:48:22.167Z,9.90
2019-04-29T10:50:52.054Z,10.02
2019-04-29T10:53:20.672Z,9.84
2019-04-29T10:55:49.258Z,9.86
2019-04-29T10:58:21.955Z,10.04
2019-04-29T11:02:08.967Z,10.05
2019-04-29T11:04:36.133Z,10.28
2019-04-29T11:07:14.234Z,10.44
2019-04-29T11:09:55.975Z,10.19
2019-04-29T11:12:24.755Z,10.22
2019-04-29T11:14:52.612Z,10.27
2019-04-29T11:17:22.821Z,10.50
2019-04-29T11:19:51.047Z,10.84
2019-04-29T11:22:21.727Z,10.69
2019-04-29T11:25:07.981Z,10.60
2019-04-29T11:27:43.455Z,10.66
2019-04-29T11:30:15.232Z,10.70
2019-04-29T11:32:48.170Z,10.90
2019-04-29T11:35:24.613Z,10.92
2019-04-29T11:37:55.406Z,10.83
2019-04-29T11:40:26.041Z,11.05
2019-04-29T11:42:54.180Z,11.32
2019-04-29T11:45:22.366Z,11.38
2019-04-29T11:47:50.654Z,11.33
2019-04-29T11:50:37.852Z,11.11
2019-04-29T11:53:06.461Z,11.30
2019-04-29T11:55:35.062Z,11.55
2019-04-29T11:58:09.296Z,11.41
2019-04-29T12:00:55.475Z,11.51
2019-04-29T12:03:27.843Z,11.43
2019-04-29T12:05:59.242Z,11.57
2019-04-29T12:08:27.048Z,11.58
2019-04-29T12:11:06.499Z,11.59
2019-04-29T12:13:38.545Z,11.51
2019-04-29T12:16:35.050Z,11.33
2019-04-29T12:19:10.708Z,11.28
2019-04-29T12:21:39.643Z,11.18
2019-04-29T12:24:08.335Z,10.99
2019-04-29T12:26:42.937Z,11.02
2019-04-29T12:29:07.016Z,11.12
2019-04-29T12:31:54.567Z,11.14
2019-04-29T12:34:51.586Z,11.15
2019-04-29T12:37:54.260Z,11.17
2019-04-29T12:40:39.578Z,11.06
2019-04-29T12:43:26.017Z,11.14
2019-04-29T12:46:04.205Z,11.10
2019-04-29T12:48:32.588Z,11.23
2019-04-29T12:51:00.810Z,11.31
2019-04-29T12:53:29.496Z,10.98
2019-04-29T12:55:57.764Z,10.88
2019-04-29T12:58:26.038Z,11.07
2019-04-29T13:01:00.947Z,11.33
2019-04-29T13:03:49.246Z,11.54
2019-04-29T13:06:38.750Z,11.65
2019-04-29T13:09:01.724Z,11.61
2019-04-29T13:11:40.877Z,11.51
2019-04-29T13:14:01.926Z,11.43
2019-04-29T13:16:36.057Z,11.39
2019-04-29T13:19:19.908Z,10.99
2019-04-29T13:21:44.751Z,10.83
2019-04-29T13:24:22.428Z,10.82
2019-04-29T13:26:42.920Z,11.01
2019-04-29T13:29:25.828Z,11.14
2019-04-29T13:31:41.994Z,10.95
2019-04-29T13:34:23.707Z,10.89
2019-04-29T13:36:42.636Z,10.45
2019-04-29T13:39:10.521Z,10.44
2019-04-29T13:41:56.234Z,10.37
2019-04-29T13:44:10.065Z,10.39
2019-04-29T13:46:53.570Z,10.34
2019-04-29T13:49:34.947Z,10.43
2019-04-29T13:52:03.455Z,10.45
2019-04-29T13:54:31.810Z,10.56
2019-04-29T13:57:07.685Z,10.89
2019-04-29T13:59:37.565Z,10.80
2019-04-29T14:02:14.826Z,10.84
2019-04-29T14:04:46.338Z,10.92
2019-04-29T14:07:18.256Z,10.74
2019-04-29T14:09:47.730Z,10.64
2019-04-29T14:12:47.300Z,10.70
2019-04-29T14:14:45.257Z,11.07
2019-04-29T14:17:26.034Z,11.22
2019-04-29T14:19:44.427Z,11.58
2019-04-29T14:22:22.005Z,11.71
2019-04-29T14:24:42.733Z,11.62
2019-04-29T14:27:24.016Z,11.33
2019-04-29T14:29:41.707Z,11.08
2019-04-29T14:32:09.517Z,11.03
2019-04-29T14:34:50.072Z,10.95
2019-04-29T14:37:23.538Z,10.96
2019-04-29T14:39:48.401Z,11.60
2019-04-29T14:42:25.707Z,11.54
2019-04-29T14:45:23.006Z,11.03
2019-04-29T14:48:11.702Z,10.82
2019-04-29T14:50:40.569Z,10.74
2019-04-29T14:53:08.953Z,11.60
2019-04-29T14:55:37.233Z,12.32
2019-04-29T14:58:05.501Z,12.88
2019-04-29T15:00:59.634Z,13.41
2019-04-29T15:03:30.142Z,13.90
2019-04-29T15:05:58.136Z,12.95
2019-04-29T15:08:26.134Z,13.54
2019-04-29T15:10:54.697Z,13.78
2019-04-29T15:13:24.840Z,13.18
2019-04-29T15:16:04.752Z,12.88
2019-04-29T15:19:02.852Z,13.65
2019-04-29T15:21:55.339Z,14.17
2019-04-29T15:24:27.473Z,14.82
2019-04-29T15:26:54.232Z,14.65
2019-04-29T15:29:22.913Z,14.30
2019-04-29T15:31:51.212Z,13.44
2019-04-29T15:34:20.309Z,12.78
2019-04-29T15:36:49.005Z,12.03
2019-04-29T15:39:17.847Z,11.45
2019-04-29T15:41:47.608Z,10.91
2019-04-29T15:44:20.322Z,10.50
2019-04-29T15:46:47.652Z,10.40
2019-04-29T15:49:19.996Z,10.35
2019-04-29T15:51:49.326Z,10.12
2019-04-29T15:54:16.791Z,9.95
2019-04-29T15:56:45.394Z,9.81
2019-04-29T15:59:14.071Z,9.75
2019-04-29T16:01:42.935Z,9.72
2019-04-29T16:04:15.796Z,9.74
2019-04-29T16:07:03.386Z,9.76
2019-04-29T16:09:52.148Z,9.53
2019-04-29T16:12:24.070Z,9.45
2019-04-29T16:14:52.809Z,9.17
2019-04-29T16:17:21.186Z,9.12
2019-04-29T16:19:49.815Z,8.96
2019-04-29T16:22:19.811Z,8.86
2019-04-29T16:24:48.273Z,8.66
2019-04-29T16:27:16.638Z,8.52
2019-04-29T16:29:46.169Z,8.48
2019-04-29T16:32:22.257Z,8.52
2019-04-29T16:34:50.880Z,8.52
2019-04-29T16:37:24.506Z,8.55
2019-04-29T16:39:52.779Z,8.46
2019-04-29T16:42:34.247Z,8.43
2019-04-29T16:45:06.137Z,8.44
2019-04-29T16:47:31.969Z,8.38
2019-04-29T16:50:04.713Z,8.31
2019-04-29T16:52:31.250Z,8.25
2019-04-29T16:55:04.182Z,8.20
2019-04-29T16:57:30.658Z,8.16
2019-04-29T16:59:58.206Z,8.11
2019-04-29T17:02:26.480Z,8.08
2019-04-29T17:04:54.721Z,8.03
2019-04-29T17:07:23.456Z,8.01
2019-04-29T17:10:09.133Z,8.00
2019-04-29T17:12:40.750Z,7.99
2019-04-29T17:15:23.764Z,7.95
2019-04-29T17:17:39.665Z,7.96
2019-04-29T17:20:07.949Z,7.98
2019-04-29T17:22:43.384Z,7.90
2019-04-29T17:25:08.912Z,7.86
2019-04-29T17:27:56.374Z,7.86
2019-04-29T17:30:56.706Z,7.77
2019-04-29T17:33:35.742Z,7.72
2019-04-29T17:36:05.032Z,7.69
2019-04-29T17:38:33.178Z,7.64
2019-04-29T17:41:01.792Z,7.59
2019-04-29T17:43:49.907Z,7.55
2019-04-29T17:46:52.711Z,7.47
2019-04-29T17:49:30.820Z,7.41
2019-04-29T17:52:03.057Z,7.37
2019-04-29T17:54:34.880Z,7.33
2019-04-29T17:57:28.171Z,7.30
2019-04-29T18:00:18.976Z,7.25
2019-04-29T18:03:12.625Z,7.13
2019-04-29T18:05:58.918Z,6.99
2019-04-29T18:08:33.538Z,6.88
2019-04-29T18:11:04.750Z,6.77
2019-04-29T18:13:32.571Z,6.66
2019-04-29T18:16:04.310Z,6.57
2019-04-29T18:18:47.357Z,6.46
2019-04-29T18:21:32.027Z,6.37
2019-04-29T18:24:13.102Z,6.30
2019-04-29T18:26:48.271Z,6.20
2019-04-29T18:29:19.048Z,6.11
2019-04-29T18:31:47.720Z,6.09
2019-04-29T18:34:16.448Z,6.02
2019-04-29T18:36:45.822Z,5.94
2019-04-29T18:39:20.176Z,5.96
2019-04-29T18:41:48.410Z,5.97
2019-04-29T18:44:19.497Z,5.95
2019-04-29T18:46:53.533Z,5.91
2019-04-29T18:49:17.617Z,5.86
2019-04-29T18:51:45.884Z,5.87
2019-04-29T18:54:14.233Z,5.94
2019-04-29T18:56:42.162Z,5.86
2019-04-29T18:59:10.203Z,5.81
2019-04-29T19:01:38.824Z,5.79
2019-04-29T19:04:26.773Z,5.74
2019-04-29T19:06:59.401Z,5.70
2019-04-29T19:09:32.332Z,5.69
2019-04-29T19:11:58.907Z,5.69
2019-04-29T19:14:28.364Z,5.68
2019-04-29T19:17:00.077Z,5.61
2019-04-29T19:19:26.147Z,5.59
2019-04-29T19:21:55.887Z,5.56
2019-04-29T19:24:24.393Z,5.52
2019-04-29T19:26:55.646Z,5.51
2019-04-29T19:29:23.086Z,5.51
2019-04-29T19:31:51.796Z,5.50
2019-04-29T19:34:20.341Z,5.56
2019-04-29T19:36:50.627Z,5.53
2019-04-29T19:39:21.965Z,5.52
2019-04-29T19:41:50.429Z,5.47
2019-04-29T19:44:18.909Z,5.41
2019-04-29T19:46:47.411Z,5.42
2019-04-29T19:49:15.858Z,5.41
2019-04-29T19:51:47.248Z,5.38
2019-04-29T19:54:18.544Z,5.33
2019-04-29T19:56:43.984Z,5.39
2019-04-29T19:59:14.743Z,5.43
2019-04-29T20:01:46.446Z,5.41
2019-04-29T20:04:34.809Z,5.39
2019-04-29T20:07:07.303Z,5.30
2019-04-29T20:09:34.949Z,5.31
2019-04-29T20:12:11.312Z,5.26
2019-04-29T20:14:34.060Z,5.21
2019-04-29T20:17:24.623Z,5.29
2019-04-29T20:20:19.636Z,5.26
2019-04-29T20:22:51.054Z,5.22
2019-04-29T20:25:29.188Z,5.25
2019-04-29T20:27:49.944Z,5.28
2019-04-29T20:30:20.949Z,5.26
2019-04-29T20:32:48.849Z,5.20
2019-04-29T20:35:18.345Z,5.14
2019-04-29T20:37:47.763Z,5.15
2019-04-29T20:40:17.837Z,5.16
2019-04-29T20:42:48.937Z,5.25
2019-04-29T20:45:20.113Z,5.20
2019-04-29T20:47:47.657Z,5.18
2019-04-29T20:50:16.956Z,5.13
2019-04-29T20:53:16.726Z,5.11
2019-04-29T20:55:46.096Z,5.08
2019-04-29T20:58:15.647Z,5.13
2019-04-29T21:00:45.399Z,5.12
2019-04-29T21:03:14.495Z,5.14
2019-04-29T21:05:48.101Z,5.20
2019-04-29T21:08:19.115Z,5.18
2019-04-29T21:10:48.427Z,5.24
2019-04-29T21:13:42.851Z,5.33
2019-04-29T21:16:22.816Z,5.23
2019-04-29T21:18:53.215Z,5.29
2019-04-29T21:21:22.362Z,5.21
2019-04-29T21:23:51.160Z,5.27
2019-04-29T21:26:20.710Z,5.28
2019-04-29T21:28:49.320Z,5.31
2019-04-29T21:31:19.977Z,5.27
2019-04-29T21:33:50.785Z,5.25
2019-04-29T21:36:45.810Z,5.25
2019-04-29T21:39:36.425Z,5.20
2019-04-29T21:42:19.463Z,5.26
2019-04-29T21:44:49.062Z,5.26
2019-04-29T21:47:17.848Z,5.14
2019-04-29T21:49:49.908Z,5.16
2019-04-29T21:52:19.645Z,5.15
2019-04-29T21:54:49.280Z,5.25
2019-04-29T21:57:23.750Z,5.28
2019-04-29T21:59:49.439Z,5.20
2019-04-29T22:02:18.335Z,5.16
2019-04-29T22:04:49.632Z,5.16
2019-04-29T22:07:18.398Z,5.14
2019-04-29T22:09:49.994Z,5.11
2019-04-29T22:12:20.208Z,5.23
2019-04-29T22:14:52.853Z,5.22
2019-04-29T22:17:17.817Z,5.30
2019-04-29T22:19:46.122Z,5.26
2019-04-29T22:22:14.359Z,5.31
2019-04-29T22:24:42.283Z,5.29
2019-04-29T22:27:10.993Z,5.31
2019-04-29T22:29:39.485Z,5.21
2019-04-29T22:32:14.331Z,5.18
2019-04-29T22:34:37.664Z,5.20
2019-04-29T22:37:05.958Z,5.15
2019-04-29T22:39:35.711Z,5.11
2019-04-29T22:42:19.032Z,5.12
2019-04-29T22:44:47.377Z,5.16
2019-04-29T22:47:17.339Z,5.16
2019-04-29T22:49:46.628Z,5.11
2019-04-29T22:52:15.071Z,5.10
2019-04-29T22:54:45.516Z,5.10
2019-04-29T22:57:13.389Z,5.13
2019-04-29T22:59:41.307Z,5.08
2019-04-29T23:02:09.942Z,5.11
2019-04-29T23:04:38.123Z,5.14
2019-04-29T23:07:06.859Z,5.13
2019-04-29T23:09:36.608Z,5.28
2019-04-29T23:12:05.490Z,5.22
2019-04-29T23:14:34.056Z,5.20
2019-04-29T23:17:06.137Z,5.17
2019-04-29T23:19:32.144Z,5.15
2019-04-29T23:22:15.437Z,5.16
2019-04-29T23:25:02.558Z,5.11
2019-04-29T23:27:30.438Z,5.04
2019-04-29T23:29:58.722Z,5.10
2019-04-29T23:32:26.983Z,5.09
2019-04-29T23:34:55.022Z,5.07
2019-04-29T23:37:29.078Z,5.13
2019-04-29T23:39:55.753Z,5.12
2019-04-29T23:42:23.723Z,5.08
2019-04-29T23:44:51.686Z,5.05
2019-04-29T23:47:19.840Z,4.96
2019-04-29T23:49:48.137Z,5.00
2019-04-29T23:52:18.000Z,5.03
2019-04-29T23:54:48.558Z,5.02
2019-04-29T23:57:41.273Z,5.09
